Brechin, United Kingdom
Current Conditions -  °F | °C
As of 6:20 AM on Tuesday 21 Oct 2014 (Local Time) from EGPN Reporting Station
Light Rain Light Rain  
Wind Chill: 55°   Ceiling: 2500
Heat Index: 55°   Visibility: 6mi
Dew Point: 52°   Wind: 21mph
Humidity: 88%   Direction: 220°SW
Pressure: 28.94"   Gusts: NA
Location:  56.73°N, 2.66°W
Report Text: EGPN 210520Z 22018KT 9999 -RA SCT015 BKN025 13/11 Q0980
Loading
Personal Weather Stations






























Interactive Weather Map New forecast layout! Learn more

10-Day Weather Forecast

Advertisements
Track Severe Weather on mobile